createdAt,value
2018-04-14T00:00:45.241Z,5.71
2018-04-14T00:03:14.408Z,5.74
2018-04-14T00:05:43.503Z,5.63
2018-04-14T00:08:12.566Z,5.36
2018-04-14T00:10:42.675Z,5.19
2018-04-14T00:13:11.746Z,5.26
2018-04-14T00:15:40.855Z,5.13
2018-04-14T00:18:10.839Z,5.00
2018-04-14T00:20:39.948Z,4.93
2018-04-14T00:23:09.002Z,4.87
2018-04-14T00:25:38.234Z,4.87
2018-04-14T00:28:07.290Z,4.88
2018-04-14T00:30:36.377Z,4.82
2018-04-14T00:33:07.397Z,4.78
2018-04-14T00:35:36.477Z,4.77
2018-04-14T00:40:41.246Z,4.93
2018-04-14T00:45:45.998Z,4.92
2018-04-14T00:48:16.712Z,4.72
2018-04-14T00:50:47.148Z,4.58
2018-04-14T00:55:52.949Z,4.62
2018-04-14T00:58:22.039Z,4.60
2018-04-14T01:00:51.118Z,4.53
2018-04-14T01:03:20.219Z,4.49
2018-04-14T01:05:49.420Z,4.52
2018-04-14T01:08:18.457Z,4.64
2018-04-14T01:10:47.540Z,4.57
2018-04-14T01:13:16.769Z,4.52
2018-04-14T01:15:45.835Z,4.48
2018-04-14T01:20:50.640Z,4.38
2018-04-14T01:23:19.699Z,4.16
2018-04-14T01:25:48.865Z,3.89
2018-04-14T01:30:58.050Z,3.81
2018-04-14T01:33:27.122Z,3.80
2018-04-14T01:35:56.174Z,3.77
2018-04-14T01:38:26.251Z,3.85
2018-04-14T01:40:55.295Z,3.97
2018-04-14T01:43:24.349Z,3.91
2018-04-14T01:45:53.422Z,3.99
2018-04-14T01:48:22.796Z,4.17
2018-04-14T01:50:51.863Z,4.11
2018-04-14T01:53:20.936Z,3.95
2018-04-14T01:55:50.061Z,3.90
2018-04-14T01:58:19.111Z,3.98
2018-04-14T02:00:48.373Z,3.91
2018-04-14T02:03:17.411Z,3.93
2018-04-14T02:05:46.466Z,3.89
2018-04-14T02:08:15.505Z,3.85
2018-04-14T02:10:44.566Z,3.94
2018-04-14T02:15:49.568Z,4.02
2018-04-14T02:18:18.625Z,4.05
2018-04-14T02:20:47.697Z,4.03
2018-04-14T02:23:16.889Z,3.86
2018-04-14T02:25:46.111Z,3.74
2018-04-14T02:28:15.158Z,3.71
2018-04-14T02:30:44.219Z,3.65
2018-04-14T02:33:14.207Z,3.74
2018-04-14T02:35:43.256Z,3.64
2018-04-14T02:38:12.301Z,3.58
2018-04-14T02:40:41.351Z,3.72
2018-04-14T02:43:10.674Z,3.63
2018-04-14T02:45:39.721Z,3.61
2018-04-14T02:48:08.769Z,3.38
2018-04-14T02:50:37.825Z,3.35
2018-04-14T02:53:06.878Z,3.13
2018-04-14T02:55:36.174Z,3.19
2018-04-14T02:58:05.205Z,3.09
2018-04-14T03:00:34.282Z,3.18
2018-04-14T03:05:40.063Z,3.25
2018-04-14T03:08:09.114Z,3.41
2018-04-14T03:10:38.173Z,3.50
2018-04-14T03:13:07.207Z,3.35
2018-04-14T03:15:36.430Z,3.42
2018-04-14T03:18:05.509Z,3.31
2018-04-14T03:20:34.571Z,3.49
2018-04-14T03:23:04.596Z,3.03
2018-04-14T03:25:33.815Z,2.78
2018-04-14T03:28:02.878Z,2.76
2018-04-14T03:30:31.997Z,2.51
2018-04-14T03:33:01.047Z,2.52
2018-04-14T03:35:30.173Z,2.59
2018-04-14T03:37:59.353Z,2.44
2018-04-14T03:40:28.389Z,2.54
2018-04-14T03:42:57.447Z,2.32
2018-04-14T03:45:26.623Z,2.24
2018-04-14T03:47:55.991Z,2.34
2018-04-14T03:50:25.030Z,2.18
2018-04-14T03:52:54.069Z,2.26
2018-04-14T03:55:23.194Z,2.29
2018-04-14T03:57:52.255Z,2.21
2018-04-14T04:00:21.331Z,2.05
2018-04-14T04:02:50.372Z,2.08
2018-04-14T04:05:19.553Z,2.10
2018-04-14T04:07:48.608Z,2.33
2018-04-14T04:10:17.743Z,2.41
2018-04-14T04:12:46.997Z,2.59
2018-04-14T04:15:16.027Z,2.69
2018-04-14T04:17:45.112Z,2.69
2018-04-14T04:20:38.661Z,2.70
2018-04-14T04:25:45.447Z,2.66
2018-04-14T04:30:51.122Z,2.74
2018-04-14T04:33:20.177Z,2.86
2018-04-14T04:35:49.325Z,2.78
2018-04-14T04:38:18.432Z,2.91
2018-04-14T04:40:55.186Z,2.93
2018-04-14T04:45:59.974Z,3.27
2018-04-14T04:48:29.982Z,3.41
2018-04-14T04:50:59.259Z,3.34
2018-04-14T04:53:28.304Z,3.48
2018-04-14T04:55:57.345Z,3.61
2018-04-14T04:58:26.635Z,3.53
2018-04-14T05:00:55.677Z,3.67
2018-04-14T05:03:25.625Z,3.66
2018-04-14T05:05:54.766Z,3.71
2018-04-14T05:08:23.809Z,3.95
2018-04-14T05:10:52.862Z,4.12
2018-04-14T05:13:22.287Z,4.07
2018-04-14T05:15:51.564Z,4.08
2018-04-14T05:18:20.916Z,4.25
2018-04-14T05:20:50.316Z,4.42
2018-04-14T05:23:19.386Z,4.47
2018-04-14T05:25:48.464Z,4.60
2018-04-14T05:28:17.714Z,4.75
2018-04-14T05:30:47.042Z,4.79
2018-04-14T05:33:16.100Z,4.83
2018-04-14T05:35:45.153Z,4.94
2018-04-14T05:38:14.565Z,5.11
2018-04-14T05:40:43.607Z,5.24
2018-04-14T05:45:48.394Z,5.52
2018-04-14T05:48:17.778Z,5.61
2018-04-14T05:50:47.166Z,5.74
2018-04-14T05:53:16.211Z,5.84
2018-04-14T05:55:46.076Z,6.19
2018-04-14T05:58:15.133Z,6.28
2018-04-14T06:00:44.180Z,6.46
2018-04-14T06:05:49.424Z,6.70
2018-04-14T06:08:18.513Z,6.92
2018-04-14T06:10:47.572Z,7.12
2018-04-14T06:13:17.585Z,7.20
2018-04-14T06:15:46.612Z,7.35
2018-04-14T06:20:51.913Z,7.81
2018-04-14T06:23:21.654Z,7.88
2018-04-14T06:25:50.694Z,8.13
2018-04-14T06:28:20.395Z,8.28
2018-04-14T06:30:49.440Z,8.39
2018-04-14T06:33:18.520Z,8.57
2018-04-14T06:35:48.331Z,8.77
2018-04-14T06:38:17.380Z,8.74
2018-04-14T06:40:46.967Z,8.81
2018-04-14T06:43:16.052Z,8.97
2018-04-14T06:45:52.567Z,9.08
2018-04-14T06:48:21.948Z,9.39
2018-04-14T06:50:51.428Z,9.55
2018-04-14T06:53:20.581Z,9.69
2018-04-14T06:55:49.671Z,9.79
2018-04-14T06:58:18.881Z,9.96
2018-04-14T07:00:47.942Z,10.21
2018-04-14T07:03:17.504Z,10.41
2018-04-14T07:05:46.556Z,10.76
2018-04-14T07:08:15.631Z,10.92
2018-04-14T07:10:44.677Z,11.26
2018-04-14T07:13:14.123Z,11.38
2018-04-14T07:15:43.201Z,11.54
2018-04-14T07:18:12.485Z,11.70
2018-04-14T07:20:41.559Z,11.89
2018-04-14T07:23:10.589Z,12.05
2018-04-14T07:25:40.504Z,12.22
2018-04-14T07:28:18.242Z,12.36
2018-04-14T07:30:47.835Z,12.57
2018-04-14T07:33:17.001Z,12.83
2018-04-14T07:38:23.774Z,13.35
2018-04-14T07:40:54.710Z,13.67
2018-04-14T07:43:23.812Z,13.70
2018-04-14T07:45:52.881Z,13.92
2018-04-14T07:48:21.972Z,14.20
2018-04-14T07:50:51.821Z,14.41
2018-04-14T07:55:56.648Z,14.96
2018-04-14T07:58:25.691Z,15.24
2018-04-14T08:00:54.751Z,15.47
2018-04-14T08:03:23.800Z,15.55
2018-04-14T08:05:53.945Z,15.77
2018-04-14T08:08:22.993Z,15.99
2018-04-14T08:13:29.966Z,16.31
2018-04-14T08:15:59.944Z,16.48
2018-04-14T08:18:28.978Z,16.62
2018-04-14T08:20:58.670Z,16.78
2018-04-14T08:26:03.530Z,17.25
2018-04-14T08:28:33.079Z,17.44
2018-04-14T08:31:02.500Z,17.57
2018-04-14T08:33:31.660Z,17.77
2018-04-14T08:36:00.716Z,17.98
2018-04-14T08:38:29.989Z,18.27
2018-04-14T08:43:35.549Z,19.10
2018-04-14T08:48:40.593Z,19.23
2018-04-14T08:51:09.730Z,19.59
2018-04-14T08:53:38.778Z,19.71
2018-04-14T08:58:44.229Z,20.50
2018-04-14T09:01:13.278Z,21.46
2018-04-14T09:03:42.776Z,22.07
2018-04-14T09:06:11.842Z,23.18
2018-04-14T09:08:40.886Z,24.87
2018-04-14T09:11:09.937Z,26.34
2018-04-14T09:13:49.031Z,27.45
2018-04-14T09:16:18.069Z,27.58
2018-04-14T09:18:47.770Z,27.00
2018-04-14T09:23:53.091Z,27.94
2018-04-14T09:26:22.152Z,28.64
2018-04-14T09:28:51.239Z,28.57
2018-04-14T09:33:56.134Z,29.90
2018-04-14T09:36:25.493Z,30.45
2018-04-14T09:38:56.007Z,29.99
2018-04-14T09:41:26.256Z,31.00
2018-04-14T09:43:56.932Z,30.59
2018-04-14T09:46:27.192Z,30.64
2018-04-14T09:48:57.821Z,31.11
2018-04-14T09:51:27.718Z,31.31
2018-04-14T09:56:40.068Z,33.09
2018-04-14T09:59:15.403Z,31.43
2018-04-14T10:01:55.145Z,32.35
2018-04-14T10:04:30.981Z,32.58
2018-04-14T10:07:06.721Z,31.72
2018-04-14T10:09:36.105Z,32.84
2018-04-14T10:12:05.762Z,33.06
2018-04-14T10:14:34.823Z,32.99
2018-04-14T10:17:04.767Z,34.01
2018-04-14T10:19:33.804Z,31.45
2018-04-14T10:22:02.858Z,32.98
2018-04-14T10:24:32.353Z,33.11
2018-04-14T10:29:38.289Z,33.94
2018-04-14T10:32:07.369Z,33.66
2018-04-14T10:34:36.441Z,35.02
2018-04-14T10:37:05.573Z,35.93
2018-04-14T10:39:34.652Z,33.78
2018-04-14T10:44:39.558Z,35.96
2018-04-14T10:47:09.088Z,36.43
2018-04-14T10:49:38.142Z,35.84
2018-04-14T10:52:07.239Z,35.16
2018-04-14T10:54:36.272Z,35.33
2018-04-14T10:57:05.944Z,36.93
2018-04-14T11:07:35.019Z,37.96
2018-04-14T11:10:08.094Z,37.14
2018-04-14T11:12:40.204Z,35.80
2018-04-14T11:15:14.607Z,36.53
2018-04-14T11:17:47.276Z,36.80
2018-04-14T11:20:29.136Z,33.90
2018-04-14T11:23:02.142Z,36.82
2018-04-14T11:25:34.702Z,37.85
2018-04-14T11:28:09.079Z,38.25
2018-04-14T11:30:42.094Z,39.35
2018-04-14T11:33:15.129Z,38.77
2018-04-14T11:35:48.463Z,38.59
2018-04-14T11:38:21.789Z,39.19
2018-04-14T11:43:40.225Z,39.74
2018-04-14T11:46:12.552Z,39.64
2018-04-14T11:48:45.510Z,38.67
2018-04-14T11:51:18.319Z,38.64
2018-04-14T11:53:52.179Z,38.27
2018-04-14T11:56:24.710Z,39.53
2018-04-14T11:58:57.456Z,40.04
2018-04-14T12:01:29.166Z,40.38
2018-04-14T12:04:01.674Z,39.98
2018-04-14T12:06:34.368Z,38.98
2018-04-14T12:09:07.934Z,38.38
2018-04-14T12:11:41.527Z,32.11
2018-04-14T12:14:14.973Z,30.25
2018-04-14T12:16:48.042Z,32.43
2018-04-14T12:19:21.013Z,33.75
2018-04-14T12:21:53.898Z,34.19
2018-04-14T12:24:25.864Z,35.36
2018-04-14T12:29:34.308Z,37.84
2018-04-14T12:32:08.428Z,38.84
2018-04-14T12:34:40.671Z,39.63
2018-04-14T12:37:13.050Z,39.80
2018-04-14T12:39:45.713Z,39.90
2018-04-14T12:42:17.532Z,40.45
2018-04-14T12:44:49.669Z,38.68
2018-04-14T12:47:22.274Z,37.99
2018-04-14T12:49:55.411Z,39.49
2018-04-14T12:52:28.668Z,40.59
2018-04-14T12:55:01.105Z,41.72
2018-04-14T13:00:08.959Z,41.74
2018-04-14T13:02:41.305Z,41.80
2018-04-14T13:05:14.531Z,38.37
2018-04-14T13:07:46.335Z,38.92
2018-04-14T13:10:18.394Z,40.05
2018-04-14T13:12:58.061Z,41.21
2018-04-14T13:15:29.379Z,42.29
2018-04-14T13:20:41.224Z,40.02
2018-04-14T13:23:13.561Z,40.49
2018-04-14T13:25:46.315Z,41.48
2018-04-14T13:28:19.131Z,42.50
2018-04-14T13:30:52.132Z,41.68
2018-04-14T13:33:24.708Z,41.45
2018-04-14T13:35:57.997Z,41.00
2018-04-14T13:38:30.447Z,41.44
2018-04-14T13:41:02.123Z,41.37
2018-04-14T13:43:34.515Z,40.60
2018-04-14T13:48:42.564Z,41.37
2018-04-14T13:51:15.604Z,41.87
2018-04-14T13:53:48.930Z,40.52
2018-04-14T13:56:21.818Z,38.40
2018-04-14T13:58:55.345Z,38.59
2018-04-14T14:01:27.599Z,40.08
2018-04-14T14:03:59.760Z,40.64
2018-04-14T14:06:33.357Z,40.07
2018-04-14T14:09:06.653Z,36.68
2018-04-14T14:11:37.200Z,38.77
2018-04-14T14:14:10.193Z,39.30
2018-04-14T14:16:42.612Z,39.06
2018-04-14T14:19:16.448Z,38.11
2018-04-14T14:21:48.536Z,39.32
2018-04-14T14:24:20.289Z,40.64
2018-04-14T14:26:53.377Z,40.16
2018-04-14T14:29:25.935Z,38.80
2018-04-14T14:37:23.873Z,40.96
2018-04-14T14:39:57.886Z,40.06
2018-04-14T14:42:30.532Z,38.38
2018-04-14T14:45:03.355Z,38.60
2018-04-14T14:47:40.541Z,39.81
2018-04-14T14:50:18.178Z,39.51
2018-04-14T14:55:29.696Z,41.33
2018-04-14T14:58:04.096Z,39.95
2018-04-14T15:00:35.811Z,39.25
2018-04-14T15:03:08.839Z,40.11
2018-04-14T15:05:42.110Z,40.45
2018-04-14T15:08:14.843Z,40.25
2018-04-14T15:10:47.784Z,40.01
2018-04-14T15:13:21.351Z,39.56
2018-04-14T15:15:54.171Z,39.37
2018-04-14T15:18:25.855Z,39.93
2018-04-14T15:20:56.987Z,39.84
2018-04-14T15:23:29.329Z,39.03
2018-04-14T15:26:04.057Z,38.08
2018-04-14T15:28:35.415Z,37.52
2018-04-14T15:31:08.562Z,35.65
2018-04-14T15:33:43.532Z,31.57
2018-04-14T15:36:16.857Z,30.55
2018-04-14T15:38:49.700Z,29.42
2018-04-14T15:43:57.972Z,27.44
2018-04-14T15:46:29.964Z,26.55
2018-04-14T15:49:03.816Z,26.42
2018-04-14T15:51:36.041Z,26.34
2018-04-14T15:54:08.925Z,25.65
2018-04-14T15:56:41.379Z,24.99
2018-04-14T15:59:14.137Z,25.18
2018-04-14T16:01:48.284Z,25.79
2018-04-14T16:04:21.524Z,26.15
2018-04-14T16:06:53.930Z,27.11
2018-04-14T16:09:27.362Z,26.84
2018-04-14T16:11:59.845Z,24.93
2018-04-14T16:14:33.065Z,25.20
2018-04-14T16:17:06.513Z,25.54
2018-04-14T16:19:39.994Z,25.23
2018-04-14T16:24:50.726Z,25.05
2018-04-14T16:30:00.274Z,24.56
2018-04-14T16:32:33.335Z,23.68
2018-04-14T16:35:07.300Z,23.64
2018-04-14T16:37:40.714Z,22.84
2018-04-14T16:42:52.244Z,22.46
2018-04-14T16:50:38.228Z,21.57
2018-04-14T16:53:11.905Z,21.56
2018-04-14T16:55:44.987Z,21.01
2018-04-14T16:58:18.036Z,20.71
2018-04-14T17:00:50.614Z,20.46
2018-04-14T17:05:59.894Z,20.50
2018-04-14T17:08:32.162Z,20.23
2018-04-14T17:11:04.683Z,20.22
2018-04-14T17:13:35.710Z,20.09
2018-04-14T17:16:07.735Z,20.08
2018-04-14T17:18:39.964Z,19.68
2018-04-14T17:21:13.509Z,19.48
2018-04-14T17:23:45.310Z,19.30
2018-04-14T17:26:17.606Z,19.13
2018-04-14T17:28:50.285Z,19.00
2018-04-14T17:31:22.700Z,18.79
2018-04-14T17:33:54.717Z,18.65
2018-04-14T17:36:26.647Z,18.52
2018-04-14T17:38:58.147Z,18.42
2018-04-14T17:41:30.564Z,18.18
2018-04-14T17:44:02.648Z,18.28
2018-04-14T17:49:11.288Z,18.18
2018-04-14T17:51:43.368Z,18.17
2018-04-14T17:54:15.943Z,17.85
2018-04-14T17:56:47.665Z,17.74
2018-04-14T18:01:52.620Z,17.44
2018-04-14T18:04:26.811Z,17.22
2018-04-14T18:06:59.694Z,17.01
2018-04-14T18:09:32.012Z,17.10
2018-04-14T18:12:03.630Z,17.11
2018-04-14T18:14:34.531Z,16.89
2018-04-14T18:17:06.282Z,16.90
2018-04-14T18:19:41.899Z,16.75
2018-04-14T18:22:14.133Z,16.59
2018-04-14T18:24:45.997Z,16.44
2018-04-14T18:27:18.040Z,16.57
2018-04-14T18:32:26.582Z,16.45
2018-04-14T18:37:34.900Z,16.26
2018-04-14T18:40:07.295Z,16.05
2018-04-14T18:42:42.840Z,16.02
2018-04-14T18:45:12.876Z,16.07
2018-04-14T18:47:45.117Z,16.02
2018-04-14T18:50:14.651Z,15.88
2018-04-14T18:52:45.958Z,15.81
2018-04-14T18:55:21.226Z,15.74
2018-04-14T18:57:56.469Z,15.59
2018-04-14T19:00:27.450Z,15.44
2018-04-14T19:02:57.510Z,15.33
2018-04-14T19:10:41.118Z,15.04
2018-04-14T19:15:53.889Z,14.66
2018-04-14T19:18:28.997Z,14.36
2018-04-14T19:21:02.241Z,14.15
2018-04-14T19:23:31.502Z,13.96
2018-04-14T19:26:00.558Z,13.78
2018-04-14T19:28:35.818Z,13.64
2018-04-14T19:31:04.877Z,13.83
2018-04-14T19:33:33.942Z,14.01
2018-04-14T19:36:09.403Z,13.81
2018-04-14T19:38:48.330Z,13.54
2018-04-14T19:41:21.475Z,13.35
2018-04-14T19:43:54.692Z,13.40
2018-04-14T19:46:27.529Z,13.16
2018-04-14T19:49:02.993Z,12.97
2018-04-14T19:54:14.247Z,13.19
2018-04-14T19:56:47.948Z,12.96
2018-04-14T19:59:22.197Z,12.86
2018-04-14T20:01:55.072Z,12.78
2018-04-14T20:04:27.232Z,12.68
2018-04-14T20:07:00.679Z,12.87
2018-04-14T20:09:33.355Z,13.06
2018-04-14T20:14:38.550Z,13.01
2018-04-14T20:17:07.597Z,12.61
2018-04-14T20:19:38.296Z,12.33
2018-04-14T20:22:09.661Z,12.43
2018-04-14T20:27:16.071Z,12.24
2018-04-14T20:29:48.013Z,12.03
2018-04-14T20:32:22.745Z,11.91
2018-04-14T20:34:55.361Z,11.73
2018-04-14T20:37:28.663Z,11.67
2018-04-14T20:40:02.791Z,11.61
2018-04-14T20:42:33.324Z,11.58
2018-04-14T20:45:07.435Z,11.51
2018-04-14T20:47:36.694Z,11.60
2018-04-14T20:50:06.208Z,11.42
2018-04-14T20:52:42.400Z,11.42
2018-04-14T20:55:23.481Z,11.51
2018-04-14T20:58:01.675Z,11.57
2018-04-14T21:00:36.580Z,11.30
2018-04-14T21:03:14.668Z,11.08
2018-04-14T21:05:52.707Z,10.93
2018-04-14T21:08:30.171Z,10.83
2018-04-14T21:11:03.338Z,10.92
2018-04-14T21:13:39.556Z,10.79
2018-04-14T21:16:11.697Z,10.70
2018-04-14T21:18:44.107Z,10.62
2018-04-14T21:21:15.377Z,10.57
2018-04-14T21:23:53.896Z,10.74
2018-04-14T21:26:23.976Z,10.63
2018-04-14T21:29:03.854Z,10.53
2018-04-14T21:31:33.485Z,10.48
2018-04-14T21:34:12.243Z,10.61
2018-04-14T21:36:52.460Z,10.58
2018-04-14T21:39:29.550Z,10.50
2018-04-14T21:42:02.905Z,10.49
2018-04-14T21:44:33.649Z,10.54
2018-04-14T21:47:04.401Z,10.52
2018-04-14T21:49:45.465Z,10.58
2018-04-14T21:52:15.216Z,10.53
2018-04-14T21:54:48.128Z,10.29
2018-04-14T21:57:33.326Z,10.12
2018-04-14T22:00:13.979Z,9.94
2018-04-14T22:02:53.938Z,9.80
2018-04-14T22:05:35.845Z,9.71
2018-04-14T22:08:11.943Z,9.67
2018-04-14T22:10:42.196Z,9.61
2018-04-14T22:15:47.439Z,9.74
2018-04-14T22:20:54.325Z,9.90
2018-04-14T22:23:24.692Z,9.99
2018-04-14T22:25:53.932Z,9.78
2018-04-14T22:28:24.399Z,9.67
2018-04-14T22:30:53.440Z,9.47
2018-04-14T22:33:23.156Z,9.36
2018-04-14T22:35:52.627Z,9.29
2018-04-14T22:38:24.838Z,9.37
2018-04-14T22:40:54.432Z,9.18
2018-04-14T22:43:24.210Z,9.04
2018-04-14T22:50:02.391Z,9.22
2018-04-14T22:52:31.623Z,9.02
2018-04-14T22:55:00.749Z,8.89
2018-04-14T22:57:29.819Z,8.84
2018-04-14T23:02:34.975Z,8.90
2018-04-14T23:05:04.057Z,9.05
2018-04-14T23:07:33.100Z,9.07
2018-04-14T23:10:02.223Z,8.83
2018-04-14T23:12:31.399Z,8.67
2018-04-14T23:15:00.625Z,8.61
2018-04-14T23:17:30.650Z,8.53
2018-04-14T23:19:59.804Z,8.45
2018-04-14T23:22:28.874Z,8.13
2018-04-14T23:24:57.991Z,7.92
2018-04-14T23:27:27.073Z,7.77
2018-04-14T23:29:56.953Z,7.84
2018-04-14T23:32:26.013Z,7.73
2018-04-14T23:34:55.053Z,7.67
2018-04-14T23:39:59.826Z,7.82
2018-04-14T23:42:31.898Z,7.92
2018-04-14T23:45:01.030Z,7.72
2018-04-14T23:47:30.136Z,7.59
2018-04-14T23:49:59.235Z,7.54
2018-04-14T23:52:29.354Z,7.45
2018-04-14T23:54:58.410Z,7.57
